createdAt,value
2023-02-25T00:02:30.767Z,13.50
2023-02-25T00:07:32.848Z,10.50
2023-02-25T00:12:35.123Z,12.65
2023-02-25T00:17:40.104Z,11.88
2023-02-25T00:22:42.118Z,11.85
2023-02-25T00:27:44.420Z,12.27
2023-02-25T00:32:46.316Z,12.00
2023-02-25T00:37:50.826Z,10.40
2023-02-25T00:42:53.177Z,8.53
2023-02-25T00:47:56.092Z,7.40
2023-02-25T00:52:57.985Z,7.90
2023-02-25T00:58:01.516Z,7.27
2023-02-25T01:03:03.404Z,7.70
2023-02-25T01:08:06.702Z,7.18
2023-02-25T01:13:08.584Z,6.40
2023-02-25T01:18:10.479Z,5.13
2023-02-25T01:23:12.528Z,5.57
2023-02-25T01:28:14.508Z,5.80
2023-02-25T01:33:16.376Z,6.68
2023-02-25T01:38:19.092Z,6.65
2023-02-25T01:43:20.951Z,6.80
2023-02-25T01:48:27.444Z,5.53
2023-02-25T01:53:35.402Z,6.20
2023-02-25T01:58:38.413Z,4.82
2023-02-25T02:03:43.264Z,5.27
2023-02-25T02:08:45.818Z,4.07
2023-02-25T02:13:52.014Z,4.57
2023-02-25T02:19:26.466Z,4.97
2023-02-25T02:24:54.634Z,4.37
2023-02-25T02:30:11.691Z,4.57
2023-02-25T02:35:27.531Z,4.47
2023-02-25T02:41:08.823Z,4.80
2023-02-25T02:46:38.387Z,6.43
2023-02-25T02:52:15.322Z,4.95
2023-02-25T02:57:21.877Z,5.60
2023-02-25T03:02:38.936Z,5.73
2023-02-25T03:07:48.700Z,4.63
2023-02-25T03:12:50.715Z,5.20
2023-02-25T03:17:59.380Z,3.63
2023-02-25T03:23:09.376Z,3.63
2023-02-25T03:28:30.612Z,3.97
2023-02-25T03:33:41.259Z,3.60
2023-02-25T03:38:48.116Z,3.20
2023-02-25T03:43:55.216Z,4.00
2023-02-25T03:49:00.525Z,4.00
2023-02-25T03:54:02.691Z,4.33
2023-02-25T03:59:07.893Z,3.33
2023-02-25T04:04:10.224Z,3.80
2023-02-25T04:09:12.211Z,4.30
2023-02-25T04:14:15.657Z,3.15
2023-02-25T04:19:18.677Z,3.45
2023-02-25T04:24:20.599Z,4.10
2023-02-25T04:29:22.440Z,3.78
2023-02-25T04:34:24.794Z,3.55
2023-02-25T04:39:26.610Z,3.77
2023-02-25T04:44:28.465Z,3.50
2023-02-25T04:49:30.323Z,4.40
2023-02-25T04:54:32.273Z,4.30
2023-02-25T04:59:34.416Z,4.37
2023-02-25T05:04:37.903Z,3.50
2023-02-25T05:09:39.856Z,3.42
2023-02-25T05:14:41.870Z,3.92
2023-02-25T05:19:43.726Z,3.50
2023-02-25T05:24:45.588Z,3.25
2023-02-25T05:29:47.438Z,3.10
2023-02-25T05:34:49.395Z,3.00
2023-02-25T05:39:51.249Z,2.93
2023-02-25T05:44:53.078Z,3.27
2023-02-25T05:49:55.074Z,3.83
2023-02-25T05:54:56.876Z,3.90
2023-02-25T05:59:58.733Z,4.40
2023-02-25T06:05:00.545Z,4.63
2023-02-25T06:10:02.379Z,4.25
2023-02-25T06:15:04.378Z,3.95
2023-02-25T06:20:07.141Z,4.43
2023-02-25T06:25:09.342Z,4.25
2023-02-25T06:30:11.642Z,4.13
2023-02-25T06:35:14.409Z,5.03
2023-02-25T06:40:16.694Z,3.78
2023-02-25T06:45:18.591Z,5.10
2023-02-25T06:50:20.430Z,4.47
2023-02-25T06:55:22.283Z,4.28
2023-02-25T07:00:24.132Z,4.00
2023-02-25T07:05:25.965Z,6.50
2023-02-25T07:10:27.767Z,4.20
2023-02-25T07:15:29.617Z,5.97
2023-02-25T07:20:31.550Z,4.73
2023-02-25T07:25:33.573Z,5.20
2023-02-25T07:30:36.006Z,4.90
2023-02-25T07:35:37.850Z,4.53
2023-02-25T07:40:41.366Z,4.87
2023-02-25T07:45:43.181Z,4.07
2023-02-25T07:50:45.021Z,4.87
2023-02-25T07:55:46.852Z,4.60
2023-02-25T08:00:48.664Z,4.70
2023-02-25T08:05:51.980Z,4.72
2023-02-25T08:10:53.971Z,5.90
2023-02-25T08:15:55.882Z,6.13
2023-02-25T08:20:58.468Z,6.43
2023-02-25T08:26:00.494Z,7.17
2023-02-25T08:31:03.234Z,6.93
2023-02-25T08:36:16.163Z,7.43
2023-02-25T08:41:19.986Z,7.30
2023-02-25T08:46:24.035Z,6.88
2023-02-25T08:51:35.333Z,6.43
2023-02-25T08:56:37.750Z,7.00
2023-02-25T09:01:45.531Z,6.57
2023-02-25T09:06:48.469Z,6.57
2023-02-25T09:11:51.018Z,5.75
2023-02-25T09:16:53.042Z,5.00
2023-02-25T09:21:55.493Z,4.40
2023-02-25T09:26:57.332Z,4.22
2023-02-25T09:31:59.366Z,4.60
2023-02-25T09:37:04.751Z,5.50
2023-02-25T09:42:22.729Z,6.85
2023-02-25T09:47:38.898Z,5.88
2023-02-25T09:52:53.742Z,6.47
2023-02-25T09:58:20.072Z,5.88
2023-02-25T10:03:39.228Z,5.55
2023-02-25T10:09:09.738Z,4.85
2023-02-25T10:14:20.772Z,5.00
2023-02-25T10:19:52.054Z,4.15
2023-02-25T10:25:03.327Z,5.07
2023-02-25T10:30:28.214Z,4.82
2023-02-25T10:35:37.280Z,5.30
2023-02-25T10:40:41.033Z,5.50
2023-02-25T10:45:47.151Z,5.30
2023-02-25T10:51:14.929Z,5.30
2023-02-25T10:56:16.750Z,5.30
2023-02-25T11:01:21.693Z,8.70
2023-02-25T11:06:28.101Z,4.70
2023-02-25T11:11:34.477Z,7.05
2023-02-25T11:16:38.882Z,7.07
2023-02-25T11:21:41.421Z,5.13
2023-02-25T11:26:47.141Z,4.77
2023-02-25T11:32:01.328Z,4.80
2023-02-25T11:37:54.767Z,7.27
2023-02-25T11:43:01.237Z,6.07
2023-02-25T11:48:05.264Z,5.77
2023-02-25T11:53:21.874Z,6.75
2023-02-25T11:58:52.901Z,7.10
2023-02-25T12:04:24.837Z,5.88
2023-02-25T12:10:08.281Z,5.55
2023-02-25T12:15:23.978Z,5.55
2023-02-25T12:20:45.354Z,5.78
2023-02-25T12:26:15.056Z,5.93
2023-02-25T12:31:36.353Z,6.70
2023-02-25T12:36:57.130Z,9.63
2023-02-25T12:42:18.161Z,9.73
2023-02-25T12:47:41.254Z,10.18
2023-02-25T12:53:31.284Z,8.77
2023-02-25T12:58:48.690Z,5.80
2023-02-25T13:04:12.314Z,5.55
2023-02-25T13:09:34.391Z,5.45
2023-02-25T13:14:36.183Z,5.00
2023-02-25T13:19:56.717Z,5.90
2023-02-25T13:25:14.660Z,4.95
2023-02-25T13:30:33.444Z,5.05
2023-02-25T13:36:02.782Z,5.05
2023-02-25T13:41:28.814Z,5.00
2023-02-25T13:46:52.679Z,4.53
2023-02-25T13:52:34.673Z,4.97
2023-02-25T13:57:48.203Z,4.60
2023-02-25T14:03:14.880Z,3.70
2023-02-25T14:08:33.831Z,3.60
2023-02-25T14:14:05.294Z,3.90
2023-02-25T14:19:45.361Z,4.05
2023-02-25T14:24:59.207Z,3.70
2023-02-25T14:30:13.132Z,3.50
2023-02-25T14:35:46.454Z,3.17
2023-02-25T14:40:56.517Z,3.60
2023-02-25T14:46:31.651Z,3.90
2023-02-25T14:51:52.035Z,3.97
2023-02-25T14:57:15.444Z,3.88
2023-02-25T15:02:42.638Z,3.78
2023-02-25T15:08:02.719Z,3.72
2023-02-25T15:13:26.425Z,2.95
2023-02-25T15:19:06.397Z,2.60
2023-02-25T15:24:11.481Z,2.20
2023-02-25T15:29:28.584Z,2.50
2023-02-25T15:34:36.030Z,2.23
2023-02-25T15:39:40.812Z,2.33
2023-02-25T15:44:44.646Z,2.15
2023-02-25T15:49:48.491Z,2.37
2023-02-25T15:54:51.088Z,1.97
2023-02-25T15:59:58.197Z,2.33
2023-02-25T16:05:18.846Z,2.50
2023-02-25T16:10:31.545Z,2.00
2023-02-25T16:15:40.695Z,2.20
2023-02-25T16:20:47.528Z,1.67
2023-02-25T16:26:22.199Z,2.00
2023-02-25T16:31:50.233Z,1.60
2023-02-25T16:37:12.633Z,1.87
2023-02-25T16:42:18.076Z,1.77
2023-02-25T16:47:27.753Z,2.17
2023-02-25T16:52:41.022Z,2.10
2023-02-25T16:58:01.174Z,1.90
2023-02-25T17:03:06.885Z,2.27
2023-02-25T17:08:16.133Z,2.67
2023-02-25T17:13:23.123Z,2.90
2023-02-25T17:18:39.851Z,3.40
2023-02-25T17:23:43.083Z,3.63
2023-02-25T17:28:47.849Z,3.37
2023-02-25T17:33:55.562Z,3.40
2023-02-25T17:39:01.135Z,3.13
2023-02-25T17:44:02.977Z,3.20
2023-02-25T17:49:31.397Z,3.30
2023-02-25T17:54:36.165Z,3.67
2023-02-25T17:59:40.358Z,3.40
2023-02-25T18:04:42.609Z,3.27
2023-02-25T18:09:44.441Z,3.63
2023-02-25T18:14:53.918Z,2.93
2023-02-25T18:19:59.329Z,2.57
2023-02-25T18:25:05.827Z,3.17
2023-02-25T18:30:20.841Z,2.80
2023-02-25T18:35:23.813Z,2.50
2023-02-25T18:40:29.923Z,2.60
2023-02-25T18:45:33.180Z,2.47
2023-02-25T18:50:35.224Z,2.20
2023-02-25T18:55:37.045Z,2.23
2023-02-25T19:00:38.964Z,2.30
2023-02-25T19:05:40.752Z,2.37
2023-02-25T19:10:43.991Z,2.30
2023-02-25T19:15:46.242Z,2.30
2023-02-25T19:20:48.214Z,2.50
2023-02-25T19:25:56.129Z,2.30
2023-02-25T19:30:58.026Z,2.70
2023-02-25T19:36:00.422Z,3.30
2023-02-25T19:41:06.453Z,2.80
2023-02-25T19:46:09.539Z,2.40
2023-02-25T19:51:11.356Z,3.00
2023-02-25T19:56:13.179Z,3.00
2023-02-25T20:01:15.149Z,2.60
2023-02-25T20:06:17.409Z,2.80
2023-02-25T20:11:23.497Z,2.80
2023-02-25T20:16:26.574Z,2.90
2023-02-25T20:21:28.760Z,2.50
2023-02-25T20:26:32.797Z,2.37
2023-02-25T20:31:34.730Z,2.33
2023-02-25T20:36:59.734Z,2.50
2023-02-25T20:42:03.520Z,2.90
2023-02-25T20:47:05.866Z,2.90
2023-02-25T20:52:07.890Z,2.90
2023-02-25T20:57:13.710Z,3.13
2023-02-25T21:02:16.668Z,2.60
2023-02-25T21:07:18.605Z,2.97
2023-02-25T21:12:20.790Z,3.10
2023-02-25T21:17:22.871Z,2.77
2023-02-25T21:22:24.742Z,2.90
2023-02-25T21:27:28.264Z,2.40
2023-02-25T21:32:30.095Z,2.87
2023-02-25T21:37:32.014Z,2.63
2023-02-25T21:42:33.968Z,2.67
2023-02-25T21:47:35.810Z,3.00
2023-02-25T21:52:37.660Z,2.53
2023-02-25T21:57:39.605Z,2.57
2023-02-25T22:02:41.825Z,2.67
2023-02-25T22:07:43.654Z,2.30
2023-02-25T22:12:45.560Z,2.60
2023-02-25T22:17:47.366Z,2.60
2023-02-25T22:22:49.229Z,2.40
2023-02-25T22:27:52.296Z,3.17
2023-02-25T22:32:54.800Z,3.00
2023-02-25T22:37:56.592Z,2.73
2023-02-25T22:42:58.436Z,2.90
2023-02-25T22:48:00.255Z,2.87
2023-02-25T22:53:02.104Z,3.13
2023-02-25T22:58:05.574Z,3.20
2023-02-25T23:03:08.115Z,3.13
2023-02-25T23:08:09.994Z,3.03
2023-02-25T23:13:11.995Z,3.00
2023-02-25T23:18:15.680Z,2.93
2023-02-25T23:23:17.606Z,2.97
2023-02-25T23:28:19.908Z,2.80
2023-02-25T23:33:21.706Z,3.53
2023-02-25T23:38:23.834Z,3.83
2023-02-25T23:43:25.702Z,3.77
2023-02-25T23:48:27.602Z,3.80
2023-02-25T23:53:29.412Z,3.87
2023-02-25T23:58:31.103Z,4.20
